• Join FlightAware (Why Join?)
  • Login
  • US Flag 
07:23PM EDT


 

Airport Tracker/Info


-or-


 

Live Flight TrackerFlight Track Log ✈ GGN7280 ✈ 13-May-2013 ✈ CYYZ - KALB

Flight Track Log - Related Links

Times and Time Zones

All times are in EDT time to prevent confusion due to time zone crossing. See the GGN7280 flight status page for this flight to view local times or setup timezone preferences in your user account.

Time Position Orientation Groundspeed Altitude Reporting Facility
EDT Latitude Longitude Course Direction KTS MPH feet Rate Location/Type
01:32PM 43.6333 -79.6167 125° Southeast 170 196 2,100  Level Toronto Center
01:33PM 43.5833 -79.5833 154° Southeast 200 230 3,600 1,500 Climbing Toronto Center
01:34PM 43.5500 -79.5167 125° Southeast 210 242 5,100 1,380 Climbing Toronto Center
01:35PM 43.5500 -79.4333 90° East 220 253 6,400 1,740 Climbing Toronto Center
01:36PM 43.5333 -79.3500 105° East 210 242 8,600 1,620 Climbing Toronto Center
01:37PM 43.5167 -79.2667 105° East 200 230 9,700 1,200 Climbing Toronto Center
01:38PM 43.5891 -78.9760 125° Southeast  Level Estimated
01:38PM 43.5000 -79.2000 109° East 230 265 11,100  Level Toronto Center
01:39PM 43.4833 -79.1000 103° East 230 265 12,400 1,200 Climbing Toronto Center
01:40PM 43.4667 -79.0167 105° East 240 276 13,500 1,140 Climbing Toronto Center
01:41PM 43.4667 -78.9167 90° East 240 276 14,700 1,200 Climbing Toronto Center
01:42PM 43.4500 -78.8333 105° East 250 288 16,000 1,260 Climbing Toronto Center
01:43PM 43.4500 -78.7333 90° East 240 276 17,300 1,200 Climbing Toronto Center
01:44PM 43.4333 -78.6500 105° East 240 276 18,400 1,020 Climbing Toronto Center
01:45PM 43.4167 -78.5500 103° East 250 288 19,400 840 Climbing Toronto Center
01:46PM 43.4258 -78.5453 21° North 237 273 19,700 840 Climbing Cleveland Center
01:47PM 43.4139 -78.4486 100° East 242 278 20,700 900 Climbing Cleveland Center
01:48PM 43.4017 -78.3547 100° East 247 284 21,600 840 Climbing Cleveland Center
01:49PM 43.3872 -78.2581 102° East 247 284 22,400 660 Climbing Cleveland Center
01:50PM 43.3769 -78.1583 98° East 253 291 23,000 300 Climbing Cleveland Center
01:51PM 43.3642 -78.0533 99° East 260 299 23,000  Level Cleveland Center
01:52PM 43.3514 -77.9511 100° East 266 306 23,000  Level Cleveland Center
01:53PM 43.3364 -77.8431 101° East 277 319 23,000  Level Cleveland Center
01:54PM 43.3214 -77.7383 101° East 277 319 23,000  Level Cleveland Center
01:55PM 43.3064 -77.6333 101° East 277 319 23,000  Level Cleveland Center
01:56PM 43.2972 -77.5281 97° East 277 319 23,000  Level Cleveland Center
01:57PM 43.2797 -77.4150 102° East 277 319 23,000  Level Cleveland Center
01:58PM 43.2642 -77.3075 101° East 277 319 23,000  Level Cleveland Center
01:59PM 43.2531 -77.2053 98° East 277 319 23,000  Level Cleveland Center
02:00PM 43.2394 -77.0978 100° East 277 319 23,100  Climbing Cleveland Center
02:01PM 43.2164 -76.9367 101° East 272 313 23,000 -60 Descending Boston Center
02:02PM 43.2036 -76.8331 100° East 272 313 23,000  Level Boston Center
02:03PM 43.1833 -76.7000 102° East 280 322 23,000  Level Toronto Center
02:04PM 43.1667 -76.6000 103° East 280 322 23,000  Level Toronto Center
02:05PM 43.1500 -76.5000 103° East 270 311 23,000  Level Toronto Center
02:06PM 43.1333 -76.4167 105° East 260 299 23,000  Level Toronto Center
02:07PM 43.1167 -76.3000 101° East 270 311 23,000  Level Toronto Center
02:08PM 43.1294 -76.2925 23° Northeast 276 318 23,000  Level Boston Center
02:09PM 43.1161 -76.1894 100° East 271 312 23,000 -240 Level Boston Center
02:10PM 43.1028 -76.0889 100° East 271 312 22,600 -540 Descending Boston Center
02:11PM 43.0850 -75.9856 103° East 276 318 22,000 -660 Descending Boston Center
02:12PM 43.0717 -75.8794 100° East 276 318 21,300 -840 Descending Boston Center
02:13PM 43.0561 -75.7764 102° East 276 318 20,400 -960 Descending Boston Center
02:14PM 43.0400 -75.6761 102° East 276 318 19,400 -1,020 Descending Boston Center
02:15PM 43.0264 -75.5731 100° East 276 318 18,400 -900 Descending Boston Center
02:16PM 43.0086 -75.4614 102° East 276 318 17,700 -900 Descending Boston Center
02:17PM 42.9944 -75.3583 101° East 276 318 16,700 -1,080 Descending Boston Center
02:18PM 42.9908 -75.2561 93° East 276 318 15,600 -1,200 Descending Boston Center
02:19PM 42.9914 -75.1453 90° East 281 323 14,300 -1,020 Descending Boston Center
02:19PM 42.9931 -75.0800 88° East 292 336 13,900 -780 Descending Boston Center
02:21PM 42.9942 -74.9383 89° East 293 337 12,900 -840 Descending Boston Center
02:22PM 42.9986 -74.8275 87° East 287 330 12,200 -780 Descending Boston Center
02:23PM 43.0047 -74.7228 85° East 287 330 11,400 -540 Descending Boston Center
02:24PM 43.0069 -74.6122 88° East 289 333 11,100 -240 Descending Boston Center
02:25PM 43.0131 -74.5072 85° East 277 319 11,000 -360 Descending Boston Center
02:26PM 43.0108 -74.4050 92° East 282 325 10,500 -420 Descending Boston Center
02:26PM 43.0086 -74.4019 135° Southeast 278 320 10,500 -1,200 Level Boston Center
02:27PM 42.9897 -74.2936 103° East 285 328 9,300 -1,440 Descending Boston Center
02:27PM 42.9878 -74.2764 99° East 278 320 9,100 -1,620 Descending Boston Center
02:28PM 42.9767 -74.1883 100° East 276 318 7,700 -1,920 Descending Boston Center
02:29PM 42.9594 -74.0914 104° East 274 315 5,800 -1,560 Descending Boston Center
02:30PM 42.9403 -73.9689 102° East 272 313 4,300 -960 Descending Boston Center
02:31PM 42.9289 -73.8947 102° East 258 297 3,900 -600 Descending Boston Center
02:32PM 42.8986 -73.8089 116° Southeast 251 289 3,300 -420 Descending Boston Center
02:33PM 42.8619 -73.7289 122° Southeast 240 276 3,100 -540 Descending Boston Center
02:34PM 42.7978 -73.6936 158° South 217 250 2,200 -660 Descending Boston Center
02:35PM 42.7622 -73.6986 186° South 149 171 1,800 -600 Descending Boston Center
02:36PM 42.7494 -73.7436 249° West 117 135 1,100 -780 Descending Boston Center
02:37PM 42.7489 -73.7886 269° West 114 131 300 -840 Descending Boston Center